createdAt,value
2017-02-05T00:00:02.056Z,97.45
2017-02-05T00:01:08.153Z,97.55
2017-02-05T00:02:13.278Z,97.55
2017-02-05T00:03:18.371Z,97.26
2017-02-05T00:04:24.461Z,97.17
2017-02-05T00:05:30.553Z,97.17
2017-02-05T00:06:35.700Z,97.26
2017-02-05T00:07:39.820Z,97.26
2017-02-05T00:08:44.941Z,97.55
2017-02-05T00:09:51.084Z,97.07
2017-02-05T00:10:57.196Z,97.07
2017-02-05T00:12:01.379Z,97.26
2017-02-05T00:13:07.448Z,97.45
2017-02-05T00:14:13.548Z,97.26
2017-02-05T00:15:17.698Z,97.36
2017-02-05T00:16:23.794Z,97.17
2017-02-05T00:17:27.958Z,97.26
2017-02-05T00:18:33.053Z,97.45
2017-02-05T00:19:39.147Z,97.45
2017-02-05T00:20:45.238Z,97.36
2017-02-05T00:21:51.330Z,97.26
2017-02-05T00:22:56.450Z,97.07
2017-02-05T00:24:01.564Z,97.17
2017-02-05T00:25:06.687Z,97.17
2017-02-05T00:26:11.817Z,97.36
2017-02-05T00:27:16.980Z,97.26
2017-02-05T00:28:22.086Z,97.17
2017-02-05T00:29:28.188Z,97.07
2017-02-05T00:30:34.286Z,96.97
2017-02-05T00:31:39.407Z,96.88
2017-02-05T00:32:44.524Z,96.78
2017-02-05T00:33:50.614Z,97.45
2017-02-05T00:34:56.708Z,97.36
2017-02-05T00:36:02.804Z,97.26
2017-02-05T00:37:07.937Z,97.36
2017-02-05T00:38:14.041Z,96.88
2017-02-05T00:39:19.161Z,96.97
2017-02-05T00:40:25.257Z,96.97
2017-02-05T00:41:30.356Z,97.36
2017-02-05T00:42:36.445Z,97.17
2017-02-05T00:43:41.539Z,96.97
2017-02-05T00:44:46.720Z,97.17
2017-02-05T00:45:51.851Z,97.45
2017-02-05T00:46:57.944Z,96.88
2017-02-05T00:48:04.041Z,97.36
2017-02-05T00:49:10.133Z,96.88
2017-02-05T00:50:16.236Z,97.07
2017-02-05T00:51:22.331Z,96.97
2017-02-05T00:52:28.437Z,97.26
2017-02-05T00:53:33.524Z,96.88
2017-02-05T00:54:38.656Z,96.69
2017-02-05T00:55:43.790Z,96.69
2017-02-05T00:56:49.880Z,96.88
2017-02-05T00:57:54.050Z,96.69
2017-02-05T00:59:00.139Z,96.69
2017-02-05T01:00:05.275Z,96.88
2017-02-05T01:01:08.434Z,97.36
2017-02-05T01:02:14.529Z,97.07
2017-02-05T01:03:20.616Z,97.26
2017-02-05T01:04:24.775Z,97.26
2017-02-05T01:05:30.873Z,97.26
2017-02-05T01:06:35.972Z,96.88
2017-02-05T01:07:40.172Z,96.88
2017-02-05T01:08:46.254Z,96.78
2017-02-05T01:09:51.378Z,96.88
2017-02-05T01:10:54.540Z,96.97
2017-02-05T01:11:59.660Z,96.97
2017-02-05T01:13:03.819Z,97.17
2017-02-05T01:14:09.882Z,96.88
2017-02-05T01:15:14.045Z,97.17
2017-02-05T01:16:19.166Z,96.78
2017-02-05T01:17:23.319Z,97.36
2017-02-05T01:18:28.442Z,97.17
2017-02-05T01:19:32.609Z,96.59
2017-02-05T01:20:38.698Z,97.07
2017-02-05T01:21:43.792Z,97.26
2017-02-05T01:22:48.919Z,97.26
2017-02-05T01:23:53.071Z,97.07
2017-02-05T01:24:59.175Z,97.26
2017-02-05T01:26:04.274Z,97.17
2017-02-05T01:27:09.396Z,97.45
2017-02-05T01:28:15.492Z,97.07
2017-02-05T01:29:21.585Z,97.45
2017-02-05T01:30:26.703Z,97.07
2017-02-05T01:31:31.846Z,97.07
2017-02-05T01:32:36.978Z,96.88
2017-02-05T01:33:43.060Z,97.26
2017-02-05T01:34:48.183Z,97.17
2017-02-05T01:35:53.314Z,97.26
2017-02-05T01:36:59.471Z,97.26
2017-02-05T01:38:04.622Z,97.55
2017-02-05T01:39:10.710Z,97.26
2017-02-05T01:40:14.864Z,97.45
2017-02-05T01:41:18.971Z,97.36
2017-02-05T01:42:24.061Z,98.11
2017-02-05T01:43:30.159Z,97.64
2017-02-05T01:44:35.292Z,97.92
2017-02-05T01:45:40.421Z,98.02
2017-02-05T01:46:46.577Z,98.11
2017-02-05T01:47:51.707Z,97.45
2017-02-05T01:48:56.831Z,97.64
2017-02-05T01:50:00.996Z,97.92
2017-02-05T01:51:07.090Z,97.26
2017-02-05T01:52:11.220Z,97.26
2017-02-05T01:53:15.371Z,98.11
2017-02-05T01:54:21.473Z,98.11
2017-02-05T01:55:26.566Z,97.92
2017-02-05T01:56:32.674Z,98.02
2017-02-05T01:57:36.830Z,98.11
2017-02-05T01:58:42.926Z,98.11
2017-02-05T01:59:47.111Z,98.3
2017-02-05T02:00:52.215Z,97.92
2017-02-05T02:01:57.337Z,97.83
2017-02-05T02:03:02.431Z,97.92
2017-02-05T02:04:07.571Z,97.64
2017-02-05T02:05:12.690Z,98.02
2017-02-05T02:06:17.814Z,97.83
2017-02-05T02:07:23.909Z,97.92
2017-02-05T02:08:29.038Z,97.92
2017-02-05T02:09:34.162Z,98.21
2017-02-05T02:10:38.342Z,97.26
2017-02-05T02:11:43.440Z,97.83
2017-02-05T02:12:49.527Z,97.74
2017-02-05T02:13:55.625Z,98.21
2017-02-05T02:15:01.713Z,97.92
2017-02-05T02:16:06.839Z,97.45
2017-02-05T02:17:11.940Z,98.02
2017-02-05T02:18:17.039Z,97.17
2017-02-05T02:19:22.169Z,97.26
2017-02-05T02:20:28.267Z,98.02
2017-02-05T02:21:34.376Z,97.83
2017-02-05T02:22:40.473Z,97.92
2017-02-05T02:23:45.601Z,97.83
2017-02-05T02:24:48.765Z,97.64
2017-02-05T02:25:54.871Z,97.74
2017-02-05T02:27:00.962Z,97.83
2017-02-05T02:28:07.055Z,97.55
2017-02-05T02:29:13.141Z,97.83
2017-02-05T02:30:19.241Z,97.83
2017-02-05T02:31:23.364Z,97.83
2017-02-05T02:32:27.524Z,97.92
2017-02-05T02:33:32.658Z,97.74
2017-02-05T02:34:38.754Z,97.55
2017-02-05T02:35:43.881Z,97.74
2017-02-05T02:36:48.038Z,97.64
2017-02-05T02:37:54.146Z,97.83
2017-02-05T02:39:00.241Z,97.74
2017-02-05T02:40:05.367Z,98.11
2017-02-05T02:41:11.461Z,97.92
2017-02-05T02:42:17.556Z,97.83
2017-02-05T02:43:22.651Z,97.83
2017-02-05T02:44:28.754Z,97.64
2017-02-05T02:45:33.853Z,98.49
2017-02-05T02:46:39.022Z,97.64
2017-02-05T02:47:45.113Z,97.92
2017-02-05T02:48:50.248Z,98.02
2017-02-05T02:49:56.338Z,98.3
2017-02-05T02:51:01.466Z,97.45
2017-02-05T02:52:07.572Z,97.36
2017-02-05T02:53:13.667Z,97.26
2017-02-05T02:54:19.765Z,97.36
2017-02-05T02:55:25.867Z,97.07
2017-02-05T02:56:30.964Z,96.88
2017-02-05T02:57:35.099Z,96.88
2017-02-05T02:58:38.283Z,96.5
2017-02-05T02:59:40.501Z,96.88
2017-02-05T03:00:46.603Z,96.31
2017-02-05T03:01:52.703Z,96.41
2017-02-05T03:02:57.834Z,96.41
2017-02-05T03:04:02.949Z,96.69
2017-02-05T03:05:09.058Z,95.55
2017-02-05T03:06:14.186Z,96.59
2017-02-05T03:07:20.272Z,95.55
2017-02-05T03:08:24.415Z,95.93
2017-02-05T03:09:29.537Z,96.22
2017-02-05T03:10:35.636Z,96.22
2017-02-05T03:11:40.740Z,95.74
2017-02-05T03:12:45.848Z,95.55
2017-02-05T03:13:51.958Z,95.17
2017-02-05T03:14:57.080Z,95.17
2017-02-05T03:16:03.175Z,94.98
2017-02-05T03:17:07.310Z,94.79
2017-02-05T03:18:13.415Z,95.17
2017-02-05T03:19:19.506Z,95.36
2017-02-05T03:20:23.640Z,95.36
2017-02-05T03:21:29.846Z,95.27
2017-02-05T03:22:33.978Z,95.55
2017-02-05T03:23:40.069Z,95.84
2017-02-05T03:24:45.173Z,95.84
2017-02-05T03:25:50.304Z,95.93
2017-02-05T03:26:56.426Z,96.03
2017-02-05T03:28:01.534Z,96.22
2017-02-05T03:29:06.633Z,96.22
2017-02-05T03:30:12.724Z,96.12
2017-02-05T03:31:17.901Z,96.41
2017-02-05T03:32:23.990Z,96.12
2017-02-05T03:33:30.093Z,95.93
2017-02-05T03:34:36.180Z,96.22
2017-02-05T03:35:41.276Z,96.41
2017-02-05T03:36:46.404Z,96.78
2017-02-05T03:37:51.527Z,96.97
2017-02-05T03:38:57.684Z,96.97
2017-02-05T03:40:01.811Z,96.88
2017-02-05T03:41:05.971Z,97.17
2017-02-05T03:42:12.071Z,96.97
2017-02-05T03:43:17.163Z,96.97
2017-02-05T03:44:21.332Z,97.07
2017-02-05T03:45:27.416Z,97.45
2017-02-05T03:46:32.538Z,97.92
2017-02-05T03:47:37.665Z,98.02
2017-02-05T03:48:42.763Z,97.17
2017-02-05T03:49:45.958Z,98.02
2017-02-05T03:50:51.077Z,98.02
2017-02-05T03:51:56.201Z,97.92
2017-02-05T03:53:02.308Z,98.02
2017-02-05T03:54:08.409Z,97.64
2017-02-05T03:55:13.504Z,97.64
2017-02-05T03:56:17.653Z,97.45
2017-02-05T03:57:21.819Z,97.83
2017-02-05T03:58:27.917Z,97.45
2017-02-05T03:59:34.036Z,98.02
2017-02-05T04:00:40.112Z,97.92
2017-02-05T04:01:45.231Z,97.92
2017-02-05T04:02:50.350Z,97.92
2017-02-05T04:03:53.511Z,98.11
2017-02-05T04:04:58.646Z,98.11
2017-02-05T04:06:04.734Z,98.49
2017-02-05T04:07:10.831Z,98.49
2017-02-05T04:08:16.924Z,98.59
2017-02-05T04:09:22.020Z,97.83
2017-02-05T04:10:28.155Z,98.59
2017-02-05T04:11:33.247Z,98.02
2017-02-05T04:12:38.370Z,97.83
2017-02-05T04:13:43.496Z,97.92
2017-02-05T04:14:48.631Z,98.02
2017-02-05T04:15:53.743Z,98.11
2017-02-05T04:16:58.865Z,98.11
2017-02-05T04:18:03.988Z,98.4
2017-02-05T04:19:06.184Z,98.11
2017-02-05T04:20:10.334Z,98.02
2017-02-05T04:21:15.428Z,97.74
2017-02-05T04:22:20.526Z,97.74
2017-02-05T04:23:25.656Z,98.3
2017-02-05T04:24:28.853Z,98.02
2017-02-05T04:25:33.009Z,98.3
2017-02-05T04:26:39.104Z,98.02
2017-02-05T04:27:45.196Z,98.21
2017-02-05T04:28:49.355Z,97.83
2017-02-05T04:29:54.486Z,97.83
2017-02-05T04:30:59.671Z,98.3
2017-02-05T04:32:04.823Z,97.92
2017-02-05T04:33:07.961Z,97.74
2017-02-05T04:34:14.059Z,97.64
2017-02-05T04:35:19.184Z,98.02
2017-02-05T04:36:22.334Z,97.64
2017-02-05T04:37:28.435Z,98.02
2017-02-05T04:38:34.523Z,98.11
2017-02-05T04:39:40.621Z,98.11
2017-02-05T04:40:45.738Z,97.92
2017-02-05T04:41:51.833Z,97.55
2017-02-05T04:42:56.961Z,97.55
2017-02-05T04:44:02.058Z,97.17
2017-02-05T04:45:07.186Z,97.26
2017-02-05T04:46:13.276Z,97.17
2017-02-05T04:47:19.374Z,97.07
2017-02-05T04:48:25.474Z,96.88
2017-02-05T04:49:30.616Z,97.26
2017-02-05T04:50:35.708Z,96.78
2017-02-05T04:51:40.856Z,96.88
2017-02-05T04:52:45.963Z,96.5
2017-02-05T04:53:50.116Z,96.69
2017-02-05T04:54:55.238Z,96.41
2017-02-05T04:56:01.333Z,96.5
2017-02-05T04:57:07.437Z,96.78
2017-02-05T04:58:12.550Z,96.41
2017-02-05T04:59:18.641Z,96.31
2017-02-05T05:00:24.779Z,96.22
2017-02-05T05:01:29.875Z,95.93
2017-02-05T05:02:36.032Z,96.41
2017-02-05T05:03:42.129Z,96.31
2017-02-05T05:04:47.226Z,95.93
2017-02-05T05:05:53.321Z,95.27
2017-02-05T05:06:59.420Z,95.46
2017-02-05T05:08:05.521Z,95.65
2017-02-05T05:09:10.653Z,95.93
2017-02-05T05:10:15.777Z,96.03
2017-02-05T05:11:20.894Z,96.31
2017-02-05T05:12:26.997Z,95.84
2017-02-05T05:13:32.129Z,95.65
2017-02-05T05:14:37.252Z,95.46
2017-02-05T05:15:42.396Z,95.74
2017-02-05T05:16:47.516Z,95.17
2017-02-05T05:17:52.605Z,95.27
2017-02-05T05:18:58.690Z,95.17
2017-02-05T05:20:04.782Z,95.36
2017-02-05T05:21:10.879Z,95.36
2017-02-05T05:22:16.989Z,95.46
2017-02-05T05:23:22.115Z,95.41
2017-02-05T05:24:27.245Z,95.6
2017-02-05T05:25:33.338Z,95.79
2017-02-05T05:26:39.482Z,95.6
2017-02-05T05:27:44.577Z,95.84
2017-02-05T05:28:49.691Z,95.55
2017-02-05T05:29:55.795Z,95.46
2017-02-05T05:31:00.913Z,95.65
2017-02-05T05:32:06.037Z,95.93
2017-02-05T05:33:10.209Z,96.03
2017-02-05T05:34:16.310Z,96.03
2017-02-05T05:35:21.439Z,96.5
2017-02-05T05:36:26.544Z,96.31
2017-02-05T05:37:32.693Z,96.22
2017-02-05T05:38:37.824Z,96.41
2017-02-05T05:39:42.912Z,95.93
2017-02-05T05:40:48.040Z,95.55
2017-02-05T05:41:54.125Z,95.84
2017-02-05T05:42:59.221Z,96.03
2017-02-05T05:44:05.330Z,96.03
2017-02-05T05:45:11.425Z,95.93
2017-02-05T05:46:15.577Z,96.03
2017-02-05T05:47:21.673Z,96.12
2017-02-05T05:48:27.759Z,96.12
2017-02-05T05:49:32.910Z,96.03
2017-02-05T05:50:39.003Z,96.59
2017-02-05T05:51:45.103Z,96.03
2017-02-05T05:52:49.250Z,96.41
2017-02-05T05:53:55.344Z,96.22
2017-02-05T05:55:01.447Z,96.69
2017-02-05T05:56:07.536Z,96.41
2017-02-05T05:57:11.691Z,96.97
2017-02-05T05:58:16.815Z,96.88
2017-02-05T05:59:22.912Z,96.69
2017-02-05T06:00:29.005Z,96.69
2017-02-05T06:01:35.103Z,96.97
2017-02-05T06:02:40.226Z,97.36
2017-02-05T06:03:45.322Z,97.26
2017-02-05T06:04:51.426Z,97.36
2017-02-05T06:05:55.563Z,97.26
2017-02-05T06:07:00.685Z,97.45
2017-02-05T06:08:04.837Z,97.45
2017-02-05T06:09:09.960Z,97.45
2017-02-05T06:10:16.059Z,97.45
2017-02-05T06:11:20.193Z,97.26
2017-02-05T06:12:26.342Z,97.36
2017-02-05T06:13:32.455Z,97.36
2017-02-05T06:14:38.568Z,97.26
2017-02-05T06:15:43.679Z,97.83
2017-02-05T06:16:47.809Z,97.83
2017-02-05T06:17:52.937Z,97.92
2017-02-05T06:18:57.100Z,97.83
2017-02-05T06:20:00.258Z,97.83
2017-02-05T06:21:05.379Z,97.83
2017-02-05T06:22:10.503Z,97.83
2017-02-05T06:23:15.643Z,97.83
2017-02-05T06:24:21.732Z,97.83
2017-02-05T06:25:27.836Z,97.83
2017-02-05T06:26:32.978Z,97.92
2017-02-05T06:27:38.110Z,98.02
2017-02-05T06:28:43.209Z,97.83
2017-02-05T06:29:47.346Z,98.11
2017-02-05T06:30:51.479Z,97.26
2017-02-05T06:31:55.634Z,97.83
2017-02-05T06:32:57.829Z,97.92
2017-02-05T06:34:03.923Z,97.45
2017-02-05T06:35:10.024Z,97.45
2017-02-05T06:36:15.156Z,98.02
2017-02-05T06:37:20.250Z,97.17
2017-02-05T06:38:25.372Z,97.36
2017-02-05T06:39:31.513Z,97.45
2017-02-05T06:40:37.583Z,97.26
2017-02-05T06:41:43.680Z,96.88
2017-02-05T06:42:48.859Z,97.36
2017-02-05T06:43:53.009Z,97.36
2017-02-05T06:44:58.129Z,97.26
2017-02-05T06:46:03.253Z,97.26
2017-02-05T06:47:07.421Z,97.17
2017-02-05T06:48:11.564Z,97.45
2017-02-05T06:49:16.675Z,97.55
2017-02-05T06:50:21.820Z,97.26
2017-02-05T06:51:27.912Z,97.45
2017-02-05T06:52:32.206Z,97.36
2017-02-05T06:53:38.287Z,97.26
2017-02-05T06:54:43.381Z,97.45
2017-02-05T06:55:49.484Z,97.45
2017-02-05T06:56:54.599Z,97.55
2017-02-05T06:58:00.685Z,97.36
2017-02-05T06:59:06.785Z,97.55
2017-02-05T07:00:11.028Z,97.17
2017-02-05T07:01:17.121Z,98.02
2017-02-05T07:02:21.264Z,97.55
2017-02-05T07:03:27.352Z,97.45
2017-02-05T07:04:33.443Z,97.55
2017-02-05T07:05:38.542Z,97.17
2017-02-05T07:06:44.639Z,98.02
2017-02-05T07:07:50.744Z,98.02
2017-02-05T07:08:53.956Z,98.3
2017-02-05T07:10:00.057Z,98.11
2017-02-05T07:11:06.150Z,97.83
2017-02-05T07:12:12.247Z,97.64
2017-02-05T07:13:17.373Z,97.92
2017-02-05T07:14:22.514Z,98.02
2017-02-05T07:15:27.640Z,97.64
2017-02-05T07:16:33.735Z,97.92
2017-02-05T07:17:38.861Z,97.92
2017-02-05T07:18:42.983Z,97.64
2017-02-05T07:19:49.086Z,97.36
2017-02-05T07:20:55.180Z,97.26
2017-02-05T07:22:01.274Z,97.17
2017-02-05T07:23:06.403Z,97.17
2017-02-05T07:24:12.497Z,97.07
2017-02-05T07:25:18.595Z,97.17
2017-02-05T07:26:23.731Z,97.26
2017-02-05T07:27:28.841Z,97.17
2017-02-05T07:28:34.924Z,97.26
2017-02-05T07:29:39.079Z,97.45
2017-02-05T07:30:44.177Z,97.26
2017-02-05T07:31:48.367Z,97.45
2017-02-05T07:32:54.465Z,97.26
2017-02-05T07:33:59.590Z,97.07
2017-02-05T07:35:02.780Z,97.26
2017-02-05T07:36:08.878Z,97.26
2017-02-05T07:37:14.973Z,97.17
2017-02-05T07:38:21.078Z,97.26
2017-02-05T07:39:27.179Z,97.17
2017-02-05T07:40:32.315Z,97.45
2017-02-05T07:41:38.402Z,97.26
2017-02-05T07:42:43.537Z,97.26
2017-02-05T07:43:48.663Z,97.17
2017-02-05T07:44:54.762Z,96.88
2017-02-05T07:45:59.896Z,97.17
2017-02-05T07:47:05.992Z,96.97
2017-02-05T07:48:12.087Z,97.07
2017-02-05T07:49:17.183Z,96.97
2017-02-05T07:50:23.273Z,97.17
2017-02-05T07:52:34.496Z,96.97
2017-02-05T07:53:39.600Z,97.17
2017-02-05T07:54:44.727Z,97.07
2017-02-05T07:55:49.904Z,97.17
2017-02-05T07:56:54.999Z,97.17
2017-02-05T07:58:01.087Z,97.36
2017-02-05T07:59:05.239Z,96.69
2017-02-05T08:00:10.369Z,96.88
2017-02-05T08:01:15.499Z,96.88
2017-02-05T08:02:21.593Z,96.88
2017-02-05T08:03:27.701Z,96.78
2017-02-05T08:04:32.832Z,96.78
2017-02-05T08:05:38.926Z,96.78
2017-02-05T08:06:44.057Z,96.31
2017-02-05T08:07:49.176Z,96.03
2017-02-05T08:08:54.300Z,96.22
2017-02-05T08:10:00.404Z,96.22
2017-02-05T08:11:05.497Z,96.41
2017-02-05T08:12:10.592Z,96.22
2017-02-05T08:13:16.685Z,96.5
2017-02-05T08:14:22.784Z,96.22
2017-02-05T08:15:27.921Z,96.31
2017-02-05T08:16:32.047Z,96.41
2017-02-05T08:17:37.164Z,96.41
2017-02-05T08:18:42.343Z,96.5
2017-02-05T08:19:48.470Z,96.22
2017-02-05T08:20:53.564Z,95.93
2017-02-05T08:21:57.704Z,96.59
2017-02-05T08:23:02.812Z,96.64
2017-02-05T08:24:08.918Z,95.89
2017-02-05T08:25:15.023Z,95.6
2017-02-05T08:26:19.146Z,95.51
2017-02-05T08:27:25.254Z,95.51
2017-02-05T08:28:30.395Z,95.41
2017-02-05T08:29:36.489Z,95.7
2017-02-05T08:30:41.608Z,95.12
2017-02-05T08:31:46.760Z,95.03
2017-02-05T08:32:52.858Z,95.03
2017-02-05T08:33:58.932Z,94.93
2017-02-05T08:35:05.027Z,95.31
2017-02-05T08:36:10.165Z,94.79
2017-02-05T08:37:14.326Z,95.12
2017-02-05T08:38:19.468Z,95.51
2017-02-05T08:39:24.597Z,95.12
2017-02-05T08:40:29.707Z,95.51
2017-02-05T08:41:34.831Z,94.84
2017-02-05T08:42:40.934Z,94.84
2017-02-05T08:43:46.037Z,95.03
2017-02-05T08:44:52.180Z,95.12
2017-02-05T08:45:56.355Z,94.93
2017-02-05T08:47:01.494Z,94.74
2017-02-05T08:48:05.637Z,94.74
2017-02-05T08:49:10.767Z,94.56
2017-02-05T08:50:16.863Z,94.46
2017-02-05T08:51:22.008Z,94.74
2017-02-05T08:52:27.134Z,94.65
2017-02-05T08:53:32.240Z,94.18
2017-02-05T08:54:38.344Z,93.89
2017-02-05T08:55:44.510Z,94.08
2017-02-05T08:56:47.643Z,93.89
2017-02-05T08:57:52.769Z,94.18
2017-02-05T08:58:56.912Z,94.18
2017-02-05T09:00:03.015Z,93.89
2017-02-05T09:01:09.121Z,93.8
2017-02-05T09:02:14.356Z,93.8
2017-02-05T09:03:19.487Z,93.99
2017-02-05T09:04:24.611Z,93.99
2017-02-05T09:05:29.701Z,93.6
2017-02-05T09:06:33.858Z,93.89
2017-02-05T09:07:38.995Z,93.32
2017-02-05T09:08:44.107Z,93.13
2017-02-05T09:09:49.237Z,93.23
2017-02-05T09:10:55.330Z,92.75
2017-02-05T09:11:59.460Z,93.04
2017-02-05T09:13:03.618Z,93.32
2017-02-05T09:14:09.705Z,93.41
2017-02-05T09:15:14.833Z,93.41
2017-02-05T09:16:20.940Z,93.6
2017-02-05T09:17:25.071Z,93.32
2017-02-05T09:18:30.203Z,93.6
2017-02-05T09:19:35.332Z,93.41
2017-02-05T09:20:38.528Z,93.23
2017-02-05T09:21:44.630Z,93.04
2017-02-05T09:22:48.782Z,93.04
2017-02-05T09:23:53.864Z,92.56
2017-02-05T09:24:58.995Z,91.8
2017-02-05T09:26:05.096Z,91.52
2017-02-05T09:27:11.185Z,92.56
2017-02-05T09:28:17.290Z,92.18
2017-02-05T09:29:22.420Z,92.28
2017-02-05T09:30:25.611Z,92.09
2017-02-05T09:31:31.711Z,91.99
2017-02-05T09:32:37.817Z,92.37
2017-02-05T09:33:43.924Z,91.52
2017-02-05T09:34:49.088Z,91.71
2017-02-05T09:35:55.174Z,91.24
2017-02-05T09:37:00.282Z,91.38
2017-02-05T09:38:06.383Z,91.52
2017-02-05T09:39:12.477Z,91.38
2017-02-05T09:40:18.570Z,91.42
2017-02-05T09:41:22.747Z,91.66
2017-02-05T09:42:28.841Z,91.56
2017-02-05T09:43:34.952Z,91.47
2017-02-05T09:44:41.023Z,91.47
2017-02-05T09:45:47.110Z,91.85
2017-02-05T09:46:50.278Z,91.09
2017-02-05T09:47:55.405Z,90.71
2017-02-05T09:49:01.501Z,90.52
2017-02-05T09:50:06.644Z,90.42
2017-02-05T09:51:11.794Z,89.76
2017-02-05T09:52:17.864Z,90.23
2017-02-05T09:53:23.962Z,89.57
2017-02-05T09:54:29.084Z,89.38
2017-02-05T09:55:34.201Z,90.05
2017-02-05T09:56:39.328Z,89.86
2017-02-05T09:57:44.429Z,89.76
2017-02-05T09:58:50.512Z,89.71
2017-02-05T09:59:55.637Z,89.71
2017-02-05T10:00:59.804Z,89.52
2017-02-05T10:02:05.926Z,89.04
2017-02-05T10:03:10.058Z,89.23
2017-02-05T10:04:15.191Z,88.57
2017-02-05T10:05:20.319Z,88.09
2017-02-05T10:06:26.454Z,87.34
2017-02-05T10:07:32.524Z,87.28
2017-02-05T10:08:37.645Z,86.8
2017-02-05T10:09:42.753Z,87.28
2017-02-05T10:10:48.843Z,86.61
2017-02-05T10:11:53.004Z,86.52
2017-02-05T10:12:58.119Z,85.47
2017-02-05T10:14:03.250Z,85.47
2017-02-05T10:15:09.351Z,85.38
2017-02-05T10:16:13.480Z,85.9
2017-02-05T10:17:19.579Z,84.95
2017-02-05T10:18:25.681Z,84.52
2017-02-05T10:19:29.835Z,84.62
2017-02-05T10:20:33.998Z,83.86
2017-02-05T10:21:40.095Z,84.14
2017-02-05T10:22:45.230Z,84.91
2017-02-05T10:23:51.336Z,84.95
2017-02-05T10:24:55.473Z,83.71
2017-02-05T10:26:01.568Z,83.29
2017-02-05T10:27:06.690Z,83.19
2017-02-05T10:28:10.849Z,83.19
2017-02-05T10:29:15.978Z,82.91
2017-02-05T10:30:21.120Z,83.58
2017-02-05T10:31:27.215Z,83.19
2017-02-05T10:32:32.372Z,83
2017-02-05T10:33:37.486Z,83.71
2017-02-05T10:34:43.598Z,82.86
2017-02-05T10:35:48.744Z,82.38
2017-02-05T10:36:53.889Z,82.48
2017-02-05T10:37:59.023Z,83.42
2017-02-05T10:39:03.270Z,82.38
2017-02-05T10:40:09.371Z,81.62
2017-02-05T10:41:15.466Z,81.43
2017-02-05T10:42:20.595Z,80.1
2017-02-05T10:43:26.697Z,79.33
2017-02-05T10:44:31.837Z,79.33
2017-02-05T10:45:36.966Z,79.62
2017-02-05T10:46:43.064Z,80.13
2017-02-05T10:47:49.175Z,80.52
2017-02-05T10:48:54.301Z,80.42
2017-02-05T10:49:58.473Z,79.09
2017-02-05T10:51:02.692Z,78.42
2017-02-05T10:52:08.754Z,78.33
2017-02-05T10:53:12.922Z,77.85
2017-02-05T10:54:17.054Z,77.76
2017-02-05T10:55:23.159Z,77.47
2017-02-05T10:56:29.257Z,77.95
2017-02-05T10:57:35.385Z,76.9
2017-02-05T10:58:39.520Z,76.71
2017-02-05T10:59:45.612Z,76.61
2017-02-05T11:00:51.714Z,77.28
2017-02-05T11:01:57.825Z,76.71
2017-02-05T11:03:01.031Z,77.28
2017-02-05T11:04:07.138Z,77.28
2017-02-05T11:05:13.240Z,78.14
2017-02-05T11:06:18.358Z,77.47
2017-02-05T11:07:24.507Z,75.67
2017-02-05T11:08:29.639Z,75.47
2017-02-05T11:09:34.765Z,75.47
2017-02-05T11:10:39.909Z,76.65
2017-02-05T11:11:46.009Z,76.27
2017-02-05T11:12:52.111Z,76.27
2017-02-05T11:13:58.251Z,76.46
2017-02-05T11:15:03.367Z,75.51
2017-02-05T11:16:08.496Z,75.89
2017-02-05T11:17:13.612Z,75.07
2017-02-05T11:18:19.708Z,74.5
2017-02-05T11:19:25.809Z,73.32
2017-02-05T11:20:29.946Z,72.56
2017-02-05T11:21:36.097Z,73.17
2017-02-05T11:22:39.268Z,74.69
2017-02-05T11:23:42.462Z,72.5
2017-02-05T11:24:48.570Z,70.4
2017-02-05T11:25:54.669Z,70.5
2017-02-05T11:26:59.810Z,70.21
2017-02-05T11:28:05.917Z,69.74
2017-02-05T11:29:11.019Z,70.31
2017-02-05T11:30:16.171Z,69.1
2017-02-05T11:31:21.310Z,67.93
2017-02-05T11:32:24.478Z,69.17
2017-02-05T11:33:30.579Z,67.74
2017-02-05T11:34:35.714Z,67.16
2017-02-05T11:35:38.916Z,67.48
2017-02-05T11:36:45.007Z,67
2017-02-05T11:37:50.123Z,67.39
2017-02-05T11:38:56.253Z,68.53
2017-02-05T11:40:00.394Z,68.34
2017-02-05T11:41:06.513Z,67.96
2017-02-05T11:42:12.590Z,68.05
2017-02-05T11:43:18.725Z,68.05
2017-02-05T11:44:23.834Z,67.86
2017-02-05T11:45:27.994Z,68.4
2017-02-05T11:46:33.104Z,68.5
2017-02-05T11:47:39.195Z,68.02
2017-02-05T11:48:44.326Z,68.3
2017-02-05T11:49:50.423Z,69.93
2017-02-05T11:50:55.554Z,69.07
2017-02-05T11:52:00.689Z,70.88
2017-02-05T11:53:04.834Z,71.13
2017-02-05T11:54:08.962Z,70.18
2017-02-05T11:55:15.056Z,69.7
2017-02-05T11:56:20.212Z,69.13
2017-02-05T11:57:26.306Z,69.6
2017-02-05T11:58:31.457Z,69.13
2017-02-05T11:59:36.589Z,69.23
2017-02-05T12:00:42.683Z,70.21
2017-02-05T12:01:47.812Z,69.89
2017-02-05T12:02:53.931Z,69.42
2017-02-05T12:03:59.049Z,67.89
2017-02-05T12:05:04.200Z,69.99
2017-02-05T12:06:10.313Z,70.27
2017-02-05T12:07:16.427Z,70.37
2017-02-05T12:08:22.520Z,69.32
2017-02-05T12:09:27.621Z,67.8
2017-02-05T12:10:32.756Z,67.93
2017-02-05T12:11:37.894Z,68.59
2017-02-05T12:12:43.986Z,69.07
2017-02-05T12:13:48.115Z,69.93
2017-02-05T12:14:54.241Z,69.45
2017-02-05T12:15:59.433Z,68.02
2017-02-05T12:17:04.559Z,67.86
2017-02-05T12:18:08.727Z,67.48
2017-02-05T12:19:14.827Z,67.48
2017-02-05T12:20:20.932Z,66.72
2017-02-05T12:21:27.031Z,66.34
2017-02-05T12:22:33.120Z,66.91
2017-02-05T12:23:38.266Z,66.53
2017-02-05T12:24:43.392Z,65.96
2017-02-05T12:25:47.526Z,65.2
2017-02-05T12:26:52.653Z,65.04
2017-02-05T12:27:57.791Z,65
2017-02-05T12:29:03.897Z,63.67
2017-02-05T12:30:09.043Z,63.48
2017-02-05T12:31:14.118Z,64.43
2017-02-05T12:32:19.255Z,64.78
2017-02-05T12:33:23.386Z,66.4
2017-02-05T12:34:29.490Z,66.66
2017-02-05T12:35:34.597Z,66.59
2017-02-05T12:36:39.716Z,67.13
2017-02-05T12:37:44.853Z,66.56
2017-02-05T12:38:48.991Z,66.75
2017-02-05T12:39:54.127Z,67.41
2017-02-05T12:40:59.253Z,68.27
2017-02-05T12:42:05.359Z,68.08
2017-02-05T12:43:11.473Z,68.27
2017-02-05T12:44:16.619Z,67.76
2017-02-05T12:45:20.778Z,67.67
2017-02-05T12:46:26.888Z,68.71
2017-02-05T12:47:32.988Z,68.24
2017-02-05T12:48:38.098Z,68.05
2017-02-05T12:49:44.192Z,68.56
2017-02-05T12:50:49.336Z,68.27
2017-02-05T12:51:55.447Z,67.41
2017-02-05T12:53:00.581Z,68.46
2017-02-05T12:54:04.740Z,68.46
2017-02-05T12:55:09.881Z,67.89
2017-02-05T12:56:15.034Z,68.46
2017-02-05T12:57:20.151Z,68.18
2017-02-05T12:58:24.383Z,67.41
2017-02-05T12:59:29.506Z,66.75
2017-02-05T13:00:34.650Z,66.75
2017-02-05T13:01:40.753Z,66.66
2017-02-05T13:02:46.863Z,66.85
2017-02-05T13:03:52.966Z,66.97
2017-02-05T13:04:57.292Z,66.94
2017-02-05T13:06:02.420Z,66.18
2017-02-05T13:07:08.523Z,66.18
2017-02-05T13:08:14.621Z,66.27
2017-02-05T13:09:20.717Z,67.41
2017-02-05T13:10:26.820Z,67.13
2017-02-05T13:11:31.916Z,67.13
2017-02-05T13:12:37.042Z,67.03
2017-02-05T13:13:42.150Z,68.15
2017-02-05T13:14:47.261Z,67.57
2017-02-05T13:15:52.402Z,67.57
2017-02-05T13:16:56.555Z,67.86
2017-02-05T13:18:02.691Z,68.43
2017-02-05T13:19:07.776Z,68.71
2017-02-05T13:20:13.868Z,69.19
2017-02-05T13:21:19.051Z,68.43
2017-02-05T13:22:25.157Z,68.15
2017-02-05T13:23:31.318Z,69.29
2017-02-05T13:24:35.479Z,69.29
2017-02-05T13:25:40.608Z,69.76
2017-02-05T13:26:46.703Z,69.85
2017-02-05T13:27:52.802Z,69.19
2017-02-05T13:28:59.024Z,69.63
2017-02-05T13:30:04.160Z,69.44
2017-02-05T13:31:10.262Z,69.63
2017-02-05T13:32:15.370Z,69.63
2017-02-05T13:33:20.506Z,69.82
2017-02-05T13:34:26.606Z,70.2
2017-02-05T13:35:30.740Z,70.01
2017-02-05T13:36:35.850Z,69.73
2017-02-05T13:37:40.980Z,70.01
2017-02-05T13:38:47.058Z,70.77
2017-02-05T13:39:52.165Z,69.63
2017-02-05T13:40:58.318Z,69.15
2017-02-05T13:42:02.463Z,69.92
2017-02-05T13:43:08.560Z,69.82
2017-02-05T13:44:14.661Z,68.96
2017-02-05T13:45:18.797Z,68.49
2017-02-05T13:46:24.896Z,68.49
2017-02-05T13:47:31.000Z,68.4
2017-02-05T13:48:36.126Z,69.44
2017-02-05T13:49:40.293Z,69.35
2017-02-05T13:50:45.391Z,69.44
2017-02-05T13:51:49.545Z,69.54
2017-02-05T13:52:55.643Z,69.63
2017-02-05T13:53:59.803Z,70.01
2017-02-05T13:55:05.888Z,70.1
2017-02-05T13:56:11.987Z,69.69
2017-02-05T13:57:16.148Z,69.6
2017-02-05T13:58:21.275Z,69.98
2017-02-05T13:59:25.426Z,70.17
2017-02-05T14:00:31.519Z,70.17
2017-02-05T14:01:35.671Z,70.07
2017-02-05T14:02:41.756Z,70.45
2017-02-05T14:03:47.852Z,70.07